TRA88T LGSA-EHAM
Flight info
| Callsign | TRA88T |
|---|---|
| Flight time | N/A |
| Altitude | 36000 |
| Route | SOKRI UY151 DDM DCT XANIS DCT DIMIS DCT OVVER DCT RODON DCT VAKSU DCT UNIPA DCT DOL DCT SIMBA DCT GASKA DCT MAPOX DCT BIGGE DCT NORKU |
| Aircraft | A21N/M-SBDE2E3FGHIJ1J5M1P2RWXYZ/LB1D1G1 |
Departure
| Time | 2026-05-08 17:45 |
|---|---|
| Airport | Chania International Airport (LGSA) |
Arrival
| Time | N/A |
|---|---|
| Airport | Amsterdam Airport Schiphol (EHAM) |
| Time | Latitude | Longitude | Altitude | Speed | Heading |
|---|---|---|---|---|---|
| 2026-05-08 17:45 | 35.63391 | 24.14594 | 8411 ft | 266 kts | 314° |
| 2026-05-08 17:45 | 35.64788 | 24.13093 | 9207 ft | 268 kts | 314° |
| 2026-05-08 17:45 | 35.66195 | 24.11583 | 10010 ft | 269 kts | 314° |
| 2026-05-08 17:45 | 35.67633 | 24.10035 | 10444 ft | 284 kts | 314° |
| 2026-05-08 17:46 | 35.69174 | 24.08379 | 10727 ft | 303 kts | 314° |
| 2026-05-08 17:46 | 35.70797 | 24.06641 | 11188 ft | 314 kts | 314° |
| 2026-05-08 17:46 | 35.72460 | 24.04859 | 11806 ft | 319 kts | 314° |
| 2026-05-08 17:46 | 35.74146 | 24.03054 | 12487 ft | 323 kts | 314° |
| 2026-05-08 17:47 | 35.75846 | 24.01232 | 13168 ft | 326 kts | 315° |
| 2026-05-08 17:47 | 35.77562 | 23.99389 | 13843 ft | 329 kts | 315° |
| 2026-05-08 17:47 | 35.79297 | 23.97528 | 14433 ft | 332 kts | 315° |
| 2026-05-08 17:47 | 35.80479 | 23.96257 | 14821 ft | 335 kts | 315° |
| 2026-05-08 17:48 | 35.82815 | 23.93741 | 15583 ft | 339 kts | 315° |
| 2026-05-08 17:48 | 35.84741 | 23.92018 | 16142 ft | 348 kts | 327° |
| 2026-05-08 17:48 | 35.86938 | 23.90711 | 16713 ft | 353 kts | 331° |
| 2026-05-08 17:48 | 35.89185 | 23.89462 | 17273 ft | 356 kts | 332° |
| 2026-05-08 17:49 | 35.91457 | 23.88195 | 17838 ft | 360 kts | 332° |
| 2026-05-08 17:49 | 35.93740 | 23.86903 | 18380 ft | 363 kts | 331° |
| 2026-05-08 17:49 | 35.96024 | 23.85596 | 18855 ft | 366 kts | 331° |
| 2026-05-08 17:49 | 35.98355 | 23.84251 | 19322 ft | 368 kts | 331° |
| 2026-05-08 17:50 | 36.00685 | 23.82901 | 19800 ft | 371 kts | 331° |
| 2026-05-08 17:50 | 36.03030 | 23.81542 | 20265 ft | 374 kts | 331° |
| 2026-05-08 17:50 | 36.05393 | 23.80173 | 20727 ft | 377 kts | 331° |
| 2026-05-08 17:50 | 36.07776 | 23.78790 | 21188 ft | 380 kts | 331° |
| 2026-05-08 17:51 | 36.10179 | 23.77397 | 21644 ft | 383 kts | 331° |
| 2026-05-08 17:51 | 36.12595 | 23.75990 | 22102 ft | 385 kts | 330° |
| 2026-05-08 17:51 | 36.15026 | 23.74560 | 22574 ft | 388 kts | 330° |
| 2026-05-08 17:51 | 36.17473 | 23.73130 | 23047 ft | 391 kts | 330° |
| 2026-05-08 17:52 | 36.19908 | 23.71707 | 23487 ft | 393 kts | 330° |
| 2026-05-08 17:52 | 36.22419 | 23.70238 | 23894 ft | 396 kts | 330° |
| 2026-05-08 17:52 | 36.27378 | 23.67353 | 24706 ft | 397 kts | 330° |
| 2026-05-08 17:53 | 36.29885 | 23.65892 | 25080 ft | 399 kts | 330° |
| 2026-05-08 17:53 | 36.32400 | 23.64424 | 25438 ft | 400 kts | 330° |
| 2026-05-08 17:53 | 36.34927 | 23.62949 | 25806 ft | 402 kts | 330° |
| 2026-05-08 17:53 | 36.37460 | 23.61472 | 26152 ft | 404 kts | 330° |
| 2026-05-08 17:54 | 36.40008 | 23.59981 | 26490 ft | 405 kts | 330° |
| 2026-05-08 17:54 | 36.42563 | 23.58488 | 26829 ft | 407 kts | 330° |
| 2026-05-08 17:54 | 36.45125 | 23.56980 | 27157 ft | 408 kts | 329° |
| 2026-05-08 17:54 | 36.47696 | 23.55466 | 27477 ft | 410 kts | 329° |
| 2026-05-08 17:55 | 36.50279 | 23.53944 | 27825 ft | 411 kts | 329° |
| 2026-05-08 17:55 | 36.52866 | 23.52421 | 28141 ft | 412 kts | 329° |
| 2026-05-08 17:55 | 36.55458 | 23.50892 | 28427 ft | 414 kts | 329° |
| 2026-05-08 17:55 | 36.58066 | 23.49356 | 28707 ft | 416 kts | 329° |
| 2026-05-08 17:56 | 36.60687 | 23.47816 | 28989 ft | 417 kts | 329° |
| 2026-05-08 17:56 | 36.63318 | 23.46269 | 29271 ft | 419 kts | 329° |
| 2026-05-08 17:56 | 36.65952 | 23.44711 | 29540 ft | 420 kts | 329° |
| 2026-05-08 17:56 | 36.68599 | 23.43154 | 29805 ft | 422 kts | 329° |
| 2026-05-08 17:57 | 36.71258 | 23.41584 | 30068 ft | 423 kts | 329° |
| 2026-05-08 17:57 | 36.73926 | 23.40019 | 30327 ft | 424 kts | 329° |
| 2026-05-08 17:57 | 36.76602 | 23.38446 | 30535 ft | 426 kts | 328° |
| 2026-05-08 17:57 | 36.79286 | 23.36867 | 30762 ft | 427 kts | 329° |
| 2026-05-08 17:58 | 36.82092 | 23.35561 | 31026 ft | 435 kts | 338° |
| 2026-05-08 17:58 | 36.85032 | 23.34809 | 31300 ft | 439 kts | 343° |
| 2026-05-08 17:58 | 36.88044 | 23.34192 | 31575 ft | 439 kts | 344° |
| 2026-05-08 17:58 | 36.91060 | 23.33587 | 31837 ft | 438 kts | 344° |
| 2026-05-08 17:59 | 36.94068 | 23.32976 | 32091 ft | 438 kts | 343° |
| 2026-05-08 17:59 | 36.97069 | 23.32352 | 32345 ft | 437 kts | 343° |
| 2026-05-08 17:59 | 37.00068 | 23.31726 | 32636 ft | 436 kts | 343° |
| 2026-05-08 17:59 | 37.03057 | 23.31101 | 32894 ft | 435 kts | 343° |
| 2026-05-08 18:00 | 37.06039 | 23.30473 | 33142 ft | 434 kts | 343° |
| 2026-05-08 18:00 | 37.11988 | 23.29234 | 33601 ft | 433 kts | 343° |
| 2026-05-08 18:00 | 37.14964 | 23.28609 | 33807 ft | 433 kts | 343° |
| 2026-05-08 18:01 | 37.17934 | 23.27987 | 34000 ft | 432 kts | 343° |
| 2026-05-08 18:01 | 37.20899 | 23.27363 | 34153 ft | 433 kts | 343° |
| 2026-05-08 18:01 | 37.23866 | 23.26735 | 34344 ft | 432 kts | 343° |
| 2026-05-08 18:01 | 37.26829 | 23.26118 | 34511 ft | 431 kts | 343° |
| 2026-05-08 18:02 | 37.29785 | 23.25499 | 34653 ft | 431 kts | 343° |
| 2026-05-08 18:02 | 37.31742 | 23.25082 | 34739 ft | 431 kts | 343° |
| 2026-05-08 18:02 | 37.35696 | 23.24237 | 34927 ft | 430 kts | 343° |
| 2026-05-08 18:02 | 37.38649 | 23.23619 | 35057 ft | 431 kts | 343° |
| 2026-05-08 18:03 | 37.44575 | 23.22349 | 35205 ft | 432 kts | 341° |
| 2026-05-08 18:03 | 37.50006 | 23.19637 | 35449 ft | 412 kts | 321° |
| 2026-05-08 18:04 | 37.52333 | 23.17560 | 35584 ft | 409 kts | 317° |
| 2026-05-08 18:04 | 37.54609 | 23.15416 | 35691 ft | 408 kts | 317° |
| 2026-05-08 18:04 | 37.56880 | 23.13276 | 35792 ft | 408 kts | 317° |
| 2026-05-08 18:04 | 37.59160 | 23.11139 | 35857 ft | 408 kts | 317° |
| 2026-05-08 18:05 | 37.63717 | 23.06891 | 36062 ft | 407 kts | 318° |
| 2026-05-08 18:05 | 37.68287 | 23.02632 | 36076 ft | 410 kts | 318° |
| 2026-05-08 18:06 | 37.72901 | 22.98336 | 36086 ft | 413 kts | 318° |
| 2026-05-08 18:06 | 37.77515 | 22.94040 | 36066 ft | 412 kts | 318° |
| 2026-05-08 18:07 | 37.82125 | 22.89730 | 36059 ft | 412 kts | 318° |
| 2026-05-08 18:07 | 37.86738 | 22.85429 | 36057 ft | 412 kts | 318° |
| 2026-05-08 18:08 | 37.91318 | 22.81138 | 36067 ft | 413 kts | 318° |
| 2026-05-08 18:08 | 37.95922 | 22.76816 | 36071 ft | 413 kts | 318° |
| 2026-05-08 18:09 | 38.00528 | 22.72485 | 36080 ft | 410 kts | 318° |
| 2026-05-08 18:09 | 38.05099 | 22.68181 | 36071 ft | 410 kts | 318° |
| 2026-05-08 18:10 | 38.09674 | 22.63860 | 36074 ft | 409 kts | 318° |
| 2026-05-08 18:10 | 38.14248 | 22.59541 | 36074 ft | 409 kts | 318° |
| 2026-05-08 18:11 | 38.18041 | 22.55949 | 36072 ft | 410 kts | 318° |
| 2026-05-08 18:11 | 38.22612 | 22.51617 | 36077 ft | 409 kts | 318° |
| 2026-05-08 18:12 | 38.27178 | 22.47287 | 36101 ft | 408 kts | 317° |
| 2026-05-08 18:12 | 38.31715 | 22.42966 | 36086 ft | 408 kts | 317° |
| 2026-05-08 18:13 | 38.36256 | 22.38643 | 36082 ft | 406 kts | 317° |
| 2026-05-08 18:13 | 38.40780 | 22.34328 | 36080 ft | 405 kts | 317° |
| 2026-05-08 18:14 | 38.45302 | 22.30006 | 36091 ft | 407 kts | 317° |
| 2026-05-08 18:14 | 38.49836 | 22.25667 | 36093 ft | 407 kts | 317° |
| 2026-05-08 18:15 | 38.54353 | 22.21334 | 36089 ft | 406 kts | 317° |
| 2026-05-08 18:15 | 38.58831 | 22.16919 | 36090 ft | 404 kts | 316° |
| 2026-05-08 18:16 | 38.63192 | 22.12421 | 36118 ft | 404 kts | 316° |
| 2026-05-08 18:16 | 38.67557 | 22.07891 | 36099 ft | 404 kts | 316° |
| 2026-05-08 18:17 | 38.71941 | 22.03345 | 36104 ft | 405 kts | 316° |
| 2026-05-08 18:17 | 38.76302 | 21.98825 | 36096 ft | 403 kts | 316° |
| 2026-05-08 18:18 | 38.80660 | 21.94298 | 36113 ft | 402 kts | 316° |
| 2026-05-08 18:18 | 38.84998 | 21.89784 | 36104 ft | 402 kts | 316° |
| 2026-05-08 18:19 | 38.89310 | 21.85291 | 36101 ft | 402 kts | 316° |
| 2026-05-08 18:19 | 38.93684 | 21.80730 | 36094 ft | 402 kts | 316° |
| 2026-05-08 18:20 | 38.98003 | 21.76216 | 36111 ft | 404 kts | 316° |
| 2026-05-08 18:20 | 39.02339 | 21.71673 | 36096 ft | 402 kts | 316° |
| 2026-05-08 18:21 | 39.06686 | 21.67120 | 36116 ft | 404 kts | 315° |
| 2026-05-08 18:21 | 39.11030 | 21.62551 | 36101 ft | 403 kts | 316° |
| 2026-05-08 18:22 | 39.15369 | 21.57977 | 36095 ft | 404 kts | 316° |
| 2026-05-08 18:22 | 39.19718 | 21.53400 | 36085 ft | 402 kts | 315° |
| 2026-05-08 18:23 | 39.24057 | 21.48820 | 36093 ft | 404 kts | 315° |
| 2026-05-08 18:23 | 39.28398 | 21.44227 | 36097 ft | 404 kts | 316° |
| 2026-05-08 18:24 | 39.32733 | 21.39621 | 36087 ft | 402 kts | 315° |
| 2026-05-08 18:24 | 39.37055 | 21.35032 | 36101 ft | 403 kts | 315° |
| 2026-05-08 18:25 | 39.41398 | 21.30428 | 36097 ft | 405 kts | 315° |
| 2026-05-08 18:25 | 39.45741 | 21.25813 | 36085 ft | 403 kts | 315° |
| 2026-05-08 18:26 | 39.50064 | 21.21196 | 36091 ft | 403 kts | 315° |
| 2026-05-08 18:26 | 39.54384 | 21.16558 | 36087 ft | 404 kts | 315° |
| 2026-05-08 18:27 | 39.57992 | 21.12691 | 36083 ft | 405 kts | 316° |
| 2026-05-08 18:27 | 39.63046 | 21.07274 | 36090 ft | 403 kts | 316° |
| 2026-05-08 18:28 | 39.67380 | 21.02619 | 36087 ft | 406 kts | 316° |
| 2026-05-08 18:28 | 39.71728 | 20.97933 | 36072 ft | 405 kts | 316° |
| 2026-05-08 18:29 | 39.76054 | 20.93290 | 36078 ft | 406 kts | 316° |
| 2026-05-08 18:29 | 39.80398 | 20.88620 | 36073 ft | 405 kts | 316° |
| 2026-05-08 18:30 | 39.84736 | 20.83939 | 36073 ft | 405 kts | 316° |
| 2026-05-08 18:30 | 39.89068 | 20.79223 | 36086 ft | 408 kts | 316° |
| 2026-05-08 18:31 | 39.93434 | 20.74477 | 36073 ft | 409 kts | 316° |
| 2026-05-08 18:31 | 39.97800 | 20.69734 | 36052 ft | 408 kts | 316° |
| 2026-05-08 18:32 | 40.02160 | 20.64993 | 36044 ft | 408 kts | 316° |
| 2026-05-08 18:32 | 40.06528 | 20.60226 | 36036 ft | 408 kts | 316° |
| 2026-05-08 18:33 | 40.10696 | 20.55203 | 36034 ft | 408 kts | 313° |
| 2026-05-08 18:33 | 40.14837 | 20.50105 | 36038 ft | 410 kts | 313° |
| 2026-05-08 18:34 | 40.18996 | 20.44974 | 36026 ft | 411 kts | 313° |
| 2026-05-08 18:34 | 40.23118 | 20.39886 | 36018 ft | 410 kts | 313° |
| 2026-05-08 18:35 | 40.27263 | 20.34748 | 36017 ft | 410 kts | 313° |
| 2026-05-08 18:35 | 40.31408 | 20.29599 | 36013 ft | 411 kts | 313° |
| 2026-05-08 18:36 | 40.35551 | 20.24464 | 36014 ft | 409 kts | 313° |
| 2026-05-08 18:36 | 40.39689 | 20.19317 | 36025 ft | 411 kts | 313° |
| 2026-05-08 18:37 | 40.43853 | 20.14134 | 36016 ft | 414 kts | 313° |
| 2026-05-08 18:37 | 40.48018 | 20.08941 | 36007 ft | 411 kts | 313° |
| 2026-05-08 18:38 | 40.52171 | 20.03749 | 35997 ft | 412 kts | 313° |
| 2026-05-08 18:38 | 40.56556 | 19.98873 | 36001 ft | 415 kts | 319° |
| 2026-05-08 18:39 | 40.61203 | 19.94361 | 35994 ft | 414 kts | 320° |
| 2026-05-08 18:39 | 40.65845 | 19.89825 | 36019 ft | 416 kts | 319° |
| 2026-05-08 18:40 | 40.70463 | 19.85286 | 36007 ft | 418 kts | 320° |
| 2026-05-08 18:40 | 40.75143 | 19.80673 | 35999 ft | 420 kts | 319° |
| 2026-05-08 18:41 | 40.79791 | 19.76085 | 35991 ft | 414 kts | 319° |
| 2026-05-08 18:41 | 40.84415 | 19.71514 | 35992 ft | 415 kts | 319° |
| 2026-05-08 18:42 | 40.89034 | 19.66938 | 35997 ft | 416 kts | 319° |
| 2026-05-08 18:42 | 40.93667 | 19.62343 | 36001 ft | 417 kts | 319° |
| 2026-05-08 18:43 | 40.98318 | 19.57718 | 35999 ft | 420 kts | 319° |
| 2026-05-08 18:43 | 41.02995 | 19.53054 | 36002 ft | 422 kts | 319° |
| 2026-05-08 18:44 | 41.07656 | 19.48389 | 36004 ft | 420 kts | 319° |
| 2026-05-08 18:44 | 41.12326 | 19.43719 | 36007 ft | 418 kts | 319° |
| 2026-05-08 18:45 | 41.16948 | 19.39091 | 36007 ft | 417 kts | 319° |
| 2026-05-08 18:45 | 41.21577 | 19.34442 | 36009 ft | 416 kts | 319° |
| 2026-05-08 18:46 | 41.26193 | 19.29803 | 36009 ft | 417 kts | 319° |
| 2026-05-08 18:46 | 41.30754 | 19.25213 | 36013 ft | 415 kts | 319° |
| 2026-05-08 18:47 | 41.35372 | 19.20552 | 36016 ft | 418 kts | 319° |
| 2026-05-08 18:47 | 41.39979 | 19.15893 | 36032 ft | 416 kts | 319° |
| 2026-05-08 18:48 | 41.44607 | 19.11203 | 36019 ft | 420 kts | 319° |
| 2026-05-08 18:48 | 41.49208 | 19.06529 | 36018 ft | 418 kts | 319° |
| 2026-05-08 18:49 | 41.53826 | 19.01807 | 36020 ft | 417 kts | 318° |
| 2026-05-08 18:49 | 41.58431 | 18.97091 | 36021 ft | 417 kts | 318° |
| 2026-05-08 18:50 | 41.63032 | 18.92364 | 36023 ft | 418 kts | 318° |
| 2026-05-08 18:50 | 41.67656 | 18.87612 | 36031 ft | 421 kts | 319° |
| 2026-05-08 18:51 | 41.72316 | 18.82819 | 36028 ft | 424 kts | 319° |
| 2026-05-08 18:51 | 41.77002 | 18.77988 | 36030 ft | 424 kts | 319° |
| 2026-05-08 18:52 | 41.81643 | 18.73198 | 36032 ft | 419 kts | 318° |
| 2026-05-08 18:52 | 41.86258 | 18.68423 | 36028 ft | 418 kts | 318° |
| 2026-05-08 18:53 | 41.90840 | 18.63663 | 36037 ft | 420 kts | 319° |
| 2026-05-08 18:53 | 41.95486 | 18.58833 | 36029 ft | 424 kts | 319° |
| 2026-05-08 18:54 | 42.00176 | 18.53974 | 36025 ft | 427 kts | 319° |
| 2026-05-08 18:54 | 42.04967 | 18.49221 | 36022 ft | 427 kts | 320° |
| 2026-05-08 18:55 | 42.12184 | 18.42188 | 36012 ft | 427 kts | 320° |
| 2026-05-08 18:56 | 42.16979 | 18.37506 | 36018 ft | 427 kts | 320° |
| 2026-05-08 18:56 | 42.21800 | 18.32772 | 36015 ft | 430 kts | 320° |
| 2026-05-08 18:57 | 42.26622 | 18.28036 | 36014 ft | 428 kts | 320° |
| 2026-05-08 18:57 | 42.31441 | 18.23296 | 36016 ft | 430 kts | 320° |
| 2026-05-08 18:58 | 42.36262 | 18.18539 | 36017 ft | 428 kts | 320° |
| 2026-05-08 18:58 | 42.41062 | 18.13805 | 36022 ft | 432 kts | 320° |
| 2026-05-08 18:59 | 42.45926 | 18.08992 | 36021 ft | 434 kts | 320° |
| 2026-05-08 18:59 | 42.50784 | 18.04171 | 36018 ft | 434 kts | 320° |
| 2026-05-08 19:00 | 42.54863 | 18.00121 | 36016 ft | 432 kts | 320° |
| 2026-05-08 19:00 | 42.60500 | 17.94510 | 36037 ft | 434 kts | 320° |
| 2026-05-08 19:01 | 42.65385 | 17.89647 | 36021 ft | 437 kts | 320° |
| 2026-05-08 19:01 | 42.70305 | 17.84729 | 36022 ft | 441 kts | 320° |
| 2026-05-08 19:02 | 42.75231 | 17.79789 | 36019 ft | 440 kts | 320° |
| 2026-05-08 19:02 | 42.79319 | 17.75685 | 36018 ft | 439 kts | 320° |
| 2026-05-08 19:03 | 42.84223 | 17.70763 | 36033 ft | 435 kts | 320° |
| 2026-05-08 19:03 | 42.89107 | 17.65846 | 36028 ft | 438 kts | 320° |
| 2026-05-08 19:04 | 42.94015 | 17.60890 | 36026 ft | 439 kts | 320° |
| 2026-05-08 19:04 | 42.98916 | 17.55933 | 36024 ft | 438 kts | 320° |
| 2026-05-08 19:05 | 43.03818 | 17.50939 | 36026 ft | 440 kts | 320° |
| 2026-05-08 19:05 | 43.08715 | 17.45963 | 36028 ft | 439 kts | 320° |
| 2026-05-08 19:06 | 43.13638 | 17.40956 | 36032 ft | 443 kts | 320° |
| 2026-05-08 19:06 | 43.18569 | 17.35932 | 36032 ft | 439 kts | 320° |
| 2026-05-08 19:07 | 43.23472 | 17.30933 | 36032 ft | 440 kts | 320° |
| 2026-05-08 19:07 | 43.28369 | 17.25922 | 36038 ft | 439 kts | 320° |
| 2026-05-08 19:08 | 43.33274 | 17.20895 | 36044 ft | 441 kts | 320° |
| 2026-05-08 19:08 | 43.38205 | 17.15821 | 36044 ft | 444 kts | 320° |
| 2026-05-08 19:09 | 43.43155 | 17.10727 | 36048 ft | 444 kts | 320° |
| 2026-05-08 19:09 | 43.48103 | 17.05623 | 36049 ft | 444 kts | 320° |
| 2026-05-08 19:10 | 43.53033 | 17.00518 | 36058 ft | 442 kts | 319° |
| 2026-05-08 19:10 | 43.57920 | 16.95435 | 36050 ft | 442 kts | 320° |
| 2026-05-08 19:11 | 43.62836 | 16.90329 | 36053 ft | 442 kts | 320° |
| 2026-05-08 19:11 | 43.67745 | 16.85214 | 36052 ft | 442 kts | 319° |
| 2026-05-08 19:12 | 43.72649 | 16.80091 | 36046 ft | 442 kts | 319° |
| 2026-05-08 19:12 | 43.77563 | 16.74963 | 36049 ft | 444 kts | 320° |
| 2026-05-08 19:13 | 43.82489 | 16.69791 | 36057 ft | 445 kts | 319° |
| 2026-05-08 19:13 | 43.87419 | 16.64603 | 36054 ft | 445 kts | 319° |
| 2026-05-08 19:14 | 43.92352 | 16.59422 | 36047 ft | 445 kts | 319° |
| 2026-05-08 19:14 | 43.97292 | 16.54248 | 36055 ft | 445 kts | 319° |
| 2026-05-08 19:15 | 44.02239 | 16.49046 | 36058 ft | 448 kts | 321° |
| 2026-05-08 19:15 | 44.07556 | 16.44587 | 36065 ft | 450 kts | 327° |
| 2026-05-08 19:16 | 44.12992 | 16.40268 | 36065 ft | 449 kts | 327° |
| 2026-05-08 19:16 | 44.18419 | 16.35935 | 36070 ft | 451 kts | 326° |
| 2026-05-08 19:17 | 44.23856 | 16.31578 | 36075 ft | 452 kts | 326° |
| 2026-05-08 19:17 | 44.29324 | 16.27189 | 36075 ft | 454 kts | 326° |
| 2026-05-08 19:18 | 44.34790 | 16.22791 | 36075 ft | 452 kts | 326° |
| 2026-05-08 19:18 | 44.40229 | 16.18405 | 36075 ft | 451 kts | 326° |
| 2026-05-08 19:19 | 44.45670 | 16.14006 | 36078 ft | 454 kts | 326° |
| 2026-05-08 19:19 | 44.51148 | 16.09566 | 36076 ft | 455 kts | 326° |
| 2026-05-08 19:20 | 44.56618 | 16.05126 | 36069 ft | 454 kts | 326° |
| 2026-05-08 19:20 | 44.62053 | 16.00707 | 36081 ft | 454 kts | 326° |
| 2026-05-08 19:21 | 44.67508 | 15.96260 | 36075 ft | 455 kts | 326° |